Bromley, Kentucky
Current Conditions -  °F | °C
As of 1:35 AM on Sunday 26 Oct 2014 (Local Time) from KI69 Reporting Station
Clear Clear  
Wind Chill: 63°   Ceiling: Unl
Heat Index: 63°   Visibility: 10mi
Dew Point: 43°   Wind: 12mph
Humidity: 48%   Direction: 310°NW
Pressure: 29.94"   Gusts: 17mph
Location:  39.0279°N, 84.5635°W
Report Text: KI69 260535Z AUTO 31010G15KT 10SM CLR 17/06 A2994 RMK AO1
Loading
Personal Weather Stations






























Interactive Weather Map
Tropical Storm Tracking
New forecast layout! Learn more

10-Day Weather Forecast

Advertisements
Track Severe Weather on mobile